Time;durP1;ratioP1;P1;durP2;ratioP2;P2;SDS_P1;SDS_P2;PMS_P1;PMS_P2;Temp;Humidity;BMP_temperature;BMP_pressure;BME280_temperature;BME280_humidity;BME280_pressure;Samples;Min_cycle;Max_cycle;Signal;HPM_P1;HPM_P2
2020/12/04 00:00:53;;;;;;;4.63;3.67;;;6.50;99.90;;;;;;7771316;27;20475;-78
2020/12/04 00:04:34;;;;;;;4.50;3.90;;;6.50;99.90;;;;;;7743453;28;20090;-78
2020/12/04 00:08:15;;;;;;;5.00;3.70;;;6.60;99.90;;;;;;7738085;28;20048;-82
2020/12/04 00:11:57;;;;;;;4.40;3.40;;;6.60;99.90;;;;;;7726555;28;20409;-79
2020/12/04 00:15:38;;;;;;;5.77;4.23;;;6.60;99.90;;;;;;7734798;28;20056;-80
2020/12/04 00:19:20;;;;;;;5.90;4.23;;;6.60;99.90;;;;;;7738507;28;20059;-81
2020/12/04 00:23:01;;;;;;;5.27;4.30;;;6.60;99.90;;;;;;7733914;28;20114;-78
2020/12/04 00:26:43;;;;;;;4.50;3.93;;;6.50;99.90;;;;;;7735309;28;20056;-78
2020/12/04 00:30:24;;;;;;;4.57;3.70;;;6.60;99.90;;;;;;7736790;28;20110;-77
2020/12/04 00:34:06;;;;;;;5.50;4.17;;;6.60;99.90;;;;;;7734794;28;20108;-78
2020/12/04 00:37:48;;;;;;;6.27;4.80;;;6.50;99.40;;;;;;7733617;28;20139;-80
2020/12/04 00:41:29;;;;;;;5.33;4.03;;;6.50;99.30;;;;;;7735797;28;20573;-77
2020/12/04 00:45:11;;;;;;;4.57;3.60;;;6.50;99.20;;;;;;7740712;28;20059;-80
2020/12/04 00:48:52;;;;;;;4.50;3.57;;;6.60;99.30;;;;;;7751887;28;20105;-80
2020/12/04 00:52:34;;;;;;;4.50;3.60;;;6.60;99.30;;;;;;7751033;28;20056;-80
2020/12/04 00:56:16;;;;;;;4.37;3.27;;;6.60;99.20;;;;;;7734875;28;20059;-78
2020/12/04 00:59:58;;;;;;;4.73;3.97;;;6.60;99.30;;;;;;7720097;28;20141;-78
2020/12/04 01:03:40;;;;;;;5.60;3.80;;;6.80;99.20;;;;;;7744382;28;20140;-78
2020/12/04 01:07:21;;;;;;;5.23;3.90;;;6.70;99.00;;;;;;7745264;28;20080;-78
2020/12/04 01:11:03;;;;;;;5.07;3.77;;;6.70;98.90;;;;;;7739450;28;20064;-77
2020/12/04 01:14:44;;;;;;;4.27;3.60;;;6.70;98.90;;;;;;7748245;28;20059;-79
2020/12/04 01:18:26;;;;;;;4.67;3.63;;;6.70;98.70;;;;;;7756435;28;20834;-79
2020/12/04 01:22:07;;;;;;;5.10;3.57;;;6.80;98.80;;;;;;7746625;28;20431;-79
2020/12/04 01:25:49;;;;;;;5.07;3.87;;;6.80;98.70;;;;;;7737503;28;20127;-78
2020/12/04 01:29:30;;;;;;;6.33;4.53;;;6.80;98.70;;;;;;7743115;28;20083;-80
2020/12/04 01:33:13;;;;;;;4.93;3.40;;;6.80;98.30;;;;;;7740891;28;20084;-78
2020/12/04 01:36:54;;;;;;;3.80;3.10;;;6.80;98.20;;;;;;7747880;28;20055;-80
2020/12/04 01:40:36;;;;;;;5.00;3.57;;;6.80;98.20;;;;;;7749976;28;20142;-78
2020/12/04 01:44:17;;;;;;;3.90;3.13;;;6.80;98.30;;;;;;7750241;28;20122;-79
2020/12/04 01:47:58;;;;;;;4.37;3.47;;;6.80;98.30;;;;;;7743377;28;20047;-81
2020/12/04 01:51:41;;;;;;;6.13;4.17;;;6.80;98.30;;;;;;7756531;28;20094;-78
2020/12/04 01:55:22;;;;;;;5.00;3.60;;;6.80;98.20;;;;;;7750020;28;20126;-80
2020/12/04 01:59:05;;;;;;;4.57;3.40;;;6.90;98.20;;;;;;7731535;28;20135;-82
2020/12/04 02:02:48;;;;;;;3.80;3.10;;;6.90;98.10;;;;;;7743308;28;20063;-81
2020/12/04 02:06:52;;;;;;;4.30;3.17;;;6.90;98.10;;;;;;7749317;28;20353;-83
2020/12/04 02:10:41;;;;;;;4.40;3.30;;;6.90;98.00;;;;;;7717124;28;20747;-81
2020/12/04 02:14:23;;;;;;;4.33;3.20;;;6.90;98.20;;;;;;7749796;28;20135;-80
2020/12/04 02:18:06;;;;;;;3.80;2.80;;;6.90;98.20;;;;;;7734104;28;20102;-82
2020/12/04 02:21:47;;;;;;;3.23;2.53;;;7.00;98.20;;;;;;7763219;28;20087;-81
2020/12/04 02:25:29;;;;;;;3.77;2.80;;;7.00;98.00;;;;;;7736412;28;20131;-80
2020/12/04 02:29:11;;;;;;;4.67;3.60;;;6.90;98.00;;;;;;7745440;28;20126;-79
2020/12/04 02:32:52;;;;;;;4.03;2.93;;;7.00;97.90;;;;;;7740652;28;20084;-81
2020/12/04 02:36:34;;;;;;;4.23;3.23;;;6.90;97.70;;;;;;7744701;28;20060;-78
2020/12/04 02:40:15;;;;;;;5.20;4.23;;;6.90;97.30;;;;;;7728869;28;20241;-78
2020/12/04 02:43:57;;;;;;;6.07;4.50;;;7.00;97.30;;;;;;7738975;28;20449;-79
2020/12/04 02:47:42;;;;;;;3.60;2.73;;;7.00;97.00;;;;;;7748777;28;20052;-81
2020/12/04 02:51:24;;;;;;;4.20;3.30;;;6.90;97.20;;;;;;7744720;28;20052;-79
2020/12/04 02:55:05;;;;;;;4.40;3.40;;;7.00;97.30;;;;;;7751033;28;20326;-81
2020/12/04 02:58:46;;;;;;;4.47;3.60;;;7.00;97.10;;;;;;7731352;28;20067;-80
2020/12/04 03:02:28;;;;;;;5.07;4.00;;;6.90;97.10;;;;;;7730955;28;20112;-80
2020/12/04 03:06:10;;;;;;;4.10;3.23;;;6.90;96.90;;;;;;7718315;28;20052;-81
2020/12/04 03:09:51;;;;;;;4.60;3.30;;;6.90;97.00;;;;;;7760534;28;20052;-81
2020/12/04 03:13:33;;;;;;;4.63;3.40;;;6.90;96.70;;;;;;7749414;28;20074;-80
2020/12/04 03:17:15;;;;;;;4.03;3.17;;;7.00;96.80;;;;;;7744309;28;20152;-79
2020/12/04 03:20:56;;;;;;;5.13;3.53;;;7.00;96.80;;;;;;7750247;28;20063;-80
2020/12/04 03:24:38;;;;;;;5.57;4.07;;;7.00;96.80;;;;;;7742957;28;20433;-82
2020/12/04 03:28:22;;;;;;;4.93;3.70;;;7.00;96.80;;;;;;7747961;28;20091;-79
2020/12/04 03:32:04;;;;;;;5.90;3.70;;;7.10;96.90;;;;;;7768081;28;20052;-80
2020/12/04 03:35:45;;;;;;;4.67;3.70;;;7.00;96.80;;;;;;7750206;28;20417;-80
2020/12/04 03:39:27;;;;;;;4.67;2.80;;;7.10;96.90;;;;;;7749633;28;20415;-80
2020/12/04 03:43:08;;;;;;;4.20;3.47;;;7.10;96.90;;;;;;7735483;28;20122;-81
2020/12/04 03:46:50;;;;;;;4.37;3.77;;;7.00;96.90;;;;;;7743223;28;20094;-80
2020/12/04 03:50:32;;;;;;;4.47;3.40;;;7.00;96.80;;;;;;7750262;28;20113;-80
2020/12/04 03:54:14;;;;;;;3.50;2.70;;;7.00;96.90;;;;;;7746210;28;20056;-76
2020/12/04 03:57:55;;;;;;;3.87;3.00;;;7.00;96.80;;;;;;7762805;28;20126;-77
2020/12/04 04:01:37;;;;;;;3.87;2.60;;;7.00;96.80;;;;;;7733950;28;20131;-77
2020/12/04 04:05:18;;;;;;;3.97;2.93;;;6.90;96.70;;;;;;7749664;28;20441;-79
2020/12/04 04:09:00;;;;;;;4.03;2.90;;;6.90;96.90;;;;;;7752731;28;20092;-79
2020/12/04 04:12:41;;;;;;;3.53;2.57;;;6.90;96.90;;;;;;7738064;28;20118;-80
2020/12/04 04:16:23;;;;;;;2.70;2.10;;;6.90;96.70;;;;;;7746383;28;20409;-81
2020/12/04 04:20:05;;;;;;;3.17;2.23;;;6.90;96.70;;;;;;7753632;28;20134;-82
2020/12/04 04:23:46;;;;;;;3.80;2.47;;;6.90;96.70;;;;;;7748667;28;20479;-80
2020/12/04 04:27:28;;;;;;;2.80;2.20;;;6.90;96.70;;;;;;7748767;28;20418;-80
2020/12/04 04:31:12;;;;;;;2.87;2.00;;;6.90;96.60;;;;;;7742259;28;20060;-82
2020/12/04 04:34:53;;;;;;;3.03;2.23;;;6.90;96.60;;;;;;7739714;28;20464;-82
2020/12/04 04:38:35;;;;;;;3.20;2.33;;;6.90;96.60;;;;;;7747819;28;20563;-80
2020/12/04 04:42:18;;;;;;;2.57;1.87;;;6.90;96.60;;;;;;7745874;28;20456;-79
2020/12/04 04:46:27;;;;;;;2.57;1.60;;;6.90;96.60;;;;;;7742323;28;20052;-79
2020/12/04 04:50:08;;;;;;;2.90;1.97;;;7.00;96.50;;;;;;7751354;28;20097;-77
2020/12/04 04:53:58;;;;;;;3.63;2.27;;;7.00;96.60;;;;;;7738005;28;20095;-80
2020/12/04 04:57:42;;;;;;;2.67;1.83;;;7.00;96.40;;;;;;7745899;28;20357;-81
2020/12/04 05:01:24;;;;;;;2.30;1.70;;;7.00;96.50;;;;;;7749974;28;20095;-79
2020/12/04 05:05:05;;;;;;;2.80;2.10;;;7.10;96.50;;;;;;7733546;28;20397;-83
2020/12/04 05:08:51;;;;;;;2.57;2.10;;;7.10;96.30;;;;;;7737500;28;20052;-79
2020/12/04 05:12:33;;;;;;;2.80;1.98;;;6.70;96.20;;;;;;7746615;28;20056;-83
2020/12/04 05:16:29;;;;;;;2.13;1.70;;;7.10;96.10;;;;;;7747842;28;20075;-82
2020/12/04 05:20:14;;;;;;;2.70;1.73;;;7.20;96.10;;;;;;7759838;28;20083;-81
2020/12/04 05:23:59;;;;;;;3.47;1.60;;;7.20;96.10;;;;;;7742828;28;20059;-80
2020/12/04 05:27:40;;;;;;;2.20;1.57;;;7.20;96.20;;;;;;7749592;28;20053;-80
2020/12/04 05:31:31;;;;;;;2.25;1.48;;;7.20;96.20;;;;;;7750724;28;20071;-82
2020/12/04 05:35:13;;;;;;;;;;;7.50;96.30;;;;;;7747743;28;20091;-85
2020/12/04 05:38:58;;;;;;;1.80;1.30;;;7.20;96.10;;;;;;7741219;28;20335;-82
2020/12/04 05:42:41;;;;;;;1.87;1.30;;;7.20;96.40;;;;;;7749137;28;20088;-80
2020/12/04 05:46:25;;;;;;;1.50;1.20;;;7.20;96.30;;;;;;7747691;28;20052;-80
2020/12/04 05:50:10;;;;;;;2.70;1.30;;;7.20;96.30;;;;;;7740789;28;20082;-78
2020/12/04 05:53:53;;;;;;;1.53;1.10;;;7.20;96.30;;;;;;7743620;28;20060;-78
2020/12/04 05:57:47;;;;;;;3.03;1.80;;;7.10;96.30;;;;;;7752717;28;20234;-82
2020/12/04 06:01:28;;;;;;;1.73;1.30;;;7.10;96.30;;;;;;7743405;28;20160;-79
2020/12/04 06:05:12;;;;;;;2.87;1.20;;;7.10;96.50;;;;;;7751022;28;20052;-79
2020/12/04 06:08:58;;;;;;;1.83;1.30;;;7.00;96.60;;;;;;7748254;28;20060;-80
2020/12/04 06:12:49;;;;;;;2.20;1.17;;;7.00;96.80;;;;;;7720134;28;20087;-80
2020/12/04 06:16:30;;;;;;;1.43;0.97;;;6.90;97.00;;;;;;7744382;28;20063;-78
2020/12/04 06:20:20;;;;;;;1.80;1.03;;;6.90;97.10;;;;;;7744416;28;20063;-78
2020/12/04 06:24:06;;;;;;;3.43;1.23;;;6.90;97.20;;;;;;7758602;28;20160;-79
2020/12/04 06:27:48;;;;;;;2.00;1.13;;;6.90;97.40;;;;;;7728416;28;20118;-78
2020/12/04 06:31:32;;;;;;;1.77;1.10;;;6.80;97.60;;;;;;7731881;28;20124;-79
2020/12/04 06:35:32;;;;;;;1.80;1.20;;;6.80;97.70;;;;;;7748380;28;20080;-77
2020/12/04 06:39:32;;;;;;;1.40;1.00;;;6.70;97.90;;;;;;7744489;28;20121;-78
2020/12/04 06:43:34;;;;;;;1.93;1.20;;;6.70;97.90;;;;;;7737455;28;20056;-79
2020/12/04 06:47:19;;;;;;;4.80;1.50;;;6.70;98.10;;;;;;7743087;28;20094;-78
2020/12/04 06:51:01;;;;;;;1.70;1.10;;;6.60;98.60;;;;;;7730997;28;20060;-77
2020/12/04 06:54:46;;;;;;;1.03;0.83;;;6.70;98.70;;;;;;7747194;28;20519;-78
2020/12/04 06:58:28;;;;;;;1.43;0.87;;;6.60;99.10;;;;;;7752010;28;20130;-82
2020/12/04 07:02:12;;;;;;;1.37;1.00;;;6.60;99.70;;;;;;7738699;28;20135;-78
2020/12/04 07:05:53;;;;;;;1.83;1.10;;;6.50;99.70;;;;;;7746522;28;20505;-80
2020/12/04 07:09:35;;;;;;;2.40;0.90;;;6.60;99.90;;;;;;7751379;28;20670;-81
2020/12/04 07:13:17;;;;;;;1.27;0.90;;;6.50;99.90;;;;;;7738185;28;20138;-76
2020/12/04 07:16:58;;;;;;;2.50;0.93;;;6.50;99.90;;;;;;7731518;28;20081;-76
2020/12/04 07:20:40;;;;;;;0.70;0.70;;;6.50;99.90;;;;;;7737143;28;20055;-81
2020/12/04 07:24:21;;;;;;;1.53;0.80;;;6.60;99.90;;;;;;7746137;28;20088;-77
2020/12/04 07:28:03;;;;;;;2.33;0.90;;;6.60;99.90;;;;;;7732943;28;20063;-82
2020/12/04 07:31:47;;;;;;;1.17;0.80;;;6.60;99.90;;;;;;7745517;28;20095;-76
2020/12/04 07:35:28;;;;;;;1.27;0.80;;;6.60;99.90;;;;;;7737882;28;20624;-77
2020/12/04 07:39:10;;;;;;;1.37;0.90;;;6.60;99.90;;;;;;7744800;28;20052;-77
2020/12/04 07:42:52;;;;;;;1.70;0.90;;;6.70;99.90;;;;;;7749221;28;20051;-76
2020/12/04 07:46:35;;;;;;;2.47;1.00;;;6.60;99.90;;;;;;7734845;28;20602;-77
2020/12/04 07:50:27;;;;;;;1.40;0.90;;;6.80;99.90;;;;;;7736793;28;20059;-80
2020/12/04 07:54:20;;;;;;;2.20;0.93;;;6.70;99.90;;;;;;7733214;28;20103;-78
2020/12/04 07:58:10;;;;;;;3.37;1.30;;;6.70;99.90;;;;;;7753023;28;20440;-78
2020/12/04 08:01:52;;;;;;;1.70;0.70;;;6.70;99.90;;;;;;7746954;28;20064;-77
2020/12/04 08:05:35;;;;;;;0.70;0.70;;;6.70;99.90;;;;;;7753564;28;20052;-83
2020/12/04 08:09:19;;;;;;;2.87;0.63;;;6.90;99.90;;;;;;7754046;28;20091;-76
2020/12/04 08:13:03;;;;;;;2.00;0.70;;;6.80;99.90;;;;;;7752716;28;20091;-78
2020/12/04 08:16:44;;;;;;;1.77;0.83;;;6.80;99.90;;;;;;7742196;28;20087;-79
2020/12/04 08:20:26;;;;;;;1.10;0.90;;;6.80;99.90;;;;;;7763986;28;20171;-78
2020/12/04 08:24:07;;;;;;;1.80;1.00;;;6.80;99.90;;;;;;7735733;28;20131;-77
2020/12/04 08:27:49;;;;;;;0.90;0.70;;;6.90;99.90;;;;;;7750254;28;20467;-75
2020/12/04 08:31:30;;;;;;;0.90;0.73;;;6.90;99.80;;;;;;7751817;28;20075;-75
2020/12/04 08:35:41;;;;;;;1.60;1.00;;;7.00;99.70;;;;;;7751133;28;20084;-74
2020/12/04 08:39:43;;;;;;;1.37;0.90;;;7.00;99.60;;;;;;7750618;28;20055;-77
2020/12/04 08:43:25;;;;;;;1.67;0.90;;;7.00;99.60;;;;;;7746697;28;20095;-79
2020/12/04 08:47:06;;;;;;;0.83;0.60;;;7.10;99.60;;;;;;7742597;28;20060;-79
2020/12/04 08:50:51;;;;;;;0.77;0.70;;;7.10;99.60;;;;;;7740464;28;20342;-75
2020/12/04 08:54:32;;;;;;;1.23;0.80;;;7.20;99.60;;;;;;7756598;28;20459;-79
2020/12/04 08:58:17;;;;;;;0.90;0.80;;;7.20;99.60;;;;;;7734387;28;20138;-77
2020/12/04 09:01:58;;;;;;;0.73;0.60;;;7.30;99.50;;;;;;7744765;28;20432;-82
2020/12/04 09:05:40;;;;;;;1.93;0.83;;;7.40;99.50;;;;;;7751360;28;20091;-81
2020/12/04 09:09:21;;;;;;;1.87;0.87;;;7.40;99.50;;;;;;7738857;28;20059;-78
2020/12/04 09:13:09;;;;;;;1.23;0.80;;;7.50;99.60;;;;;;7742968;28;20056;-85
2020/12/04 09:16:51;;;;;;;1.80;0.87;;;7.60;99.90;;;;;;7737280;28;20135;-80
2020/12/04 09:20:34;;;;;;;2.20;0.90;;;7.80;99.70;;;;;;7735375;28;20094;-79
2020/12/04 09:24:15;;;;;;;0.97;0.70;;;7.90;99.50;;;;;;7739177;28;20059;-79
2020/12/04 09:27:58;;;;;;;4.30;1.00;;;7.90;99.20;;;;;;7734809;28;20365;-79
2020/12/04 09:31:39;;;;;;;2.30;1.17;;;7.90;98.90;;;;;;7743837;28;21029;-82
2020/12/04 09:35:21;;;;;;;2.70;0.97;;;7.90;98.60;;;;;;7735993;28;20139;-79
2020/12/04 09:39:03;;;;;;;1.63;0.80;;;7.90;98.40;;;;;;7734873;28;20439;-77
2020/12/04 09:42:45;;;;;;;2.37;0.90;;;8.00;98.30;;;;;;7737018;28;20102;-78
2020/12/04 09:46:30;;;;;;;1.00;0.70;;;7.90;98.20;;;;;;7723452;28;20135;-82
2020/12/04 09:50:15;;;;;;;1.47;0.70;;;8.00;98.10;;;;;;7751286;28;20367;-77
2020/12/04 09:53:57;;;;;;;1.50;0.80;;;8.00;97.70;;;;;;7750358;28;20059;-85
2020/12/04 09:57:38;;;;;;;1.57;0.90;;;8.10;97.40;;;;;;7741852;28;20070;-84
2020/12/04 10:01:20;;;;;;;2.83;0.97;;;8.10;97.10;;;;;;7750014;28;20100;-78
2020/12/04 10:05:02;;;;;;;1.67;0.80;;;8.20;96.50;;;;;;7749530;28;20070;-79
2020/12/04 10:08:43;;;;;;;1.60;0.93;;;8.20;96.40;;;;;;7741209;28;20134;-86
2020/12/04 10:12:25;;;;;;;2.60;1.07;;;8.20;96.30;;;;;;7746726;28;20146;-82
2020/12/04 10:16:06;;;;;;;4.47;1.20;;;8.20;95.80;;;;;;7746111;28;20083;-81
2020/12/04 10:19:48;;;;;;;2.00;0.90;;;8.30;95.10;;;;;;7720997;28;20480;-84
2020/12/04 10:23:29;;;;;;;2.63;0.90;;;8.30;95.30;;;;;;7732878;28;20078;-81
2020/12/04 10:27:10;;;;;;;1.53;0.90;;;8.30;95.10;;;;;;7733000;28;20056;-80
2020/12/04 10:30:52;;;;;;;6.70;1.17;;;8.30;94.80;;;;;;7739741;28;20059;-86
2020/12/04 10:34:34;;;;;;;3.00;0.90;;;8.40;95.00;;;;;;7732537;28;20329;-79
2020/12/04 10:38:15;;;;;;;3.30;0.90;;;8.40;94.90;;;;;;7733145;28;20475;-81
2020/12/04 10:41:57;;;;;;;3.53;1.10;;;8.50;94.90;;;;;;7733319;28;20056;-78
2020/12/04 10:45:38;;;;;;;1.43;1.03;;;8.50;94.80;;;;;;7735738;28;20079;-86
2020/12/04 10:49:20;;;;;;;2.93;1.00;;;8.60;94.60;;;;;;7729033;28;20256;-87
2020/12/04 10:53:01;;;;;;;2.17;0.80;;;8.60;94.60;;;;;;7747028;28;20445;-87
2020/12/04 10:56:43;;;;;;;3.40;0.90;;;8.70;94.70;;;;;;7730008;28;20418;-89
2020/12/04 11:00:24;;;;;;;1.90;0.97;;;8.80;94.60;;;;;;7739263;28;20452;-83
2020/12/04 11:08:06;;;;;;;2.33;0.90;;;9.00;94.30;;;;;;7756077;28;20062;-87
2020/12/04 11:11:48;;;;;;;1.60;0.73;;;9.10;93.80;;;;;;7732585;28;20063;-87
2020/12/04 11:15:30;;;;;;;4.27;1.17;;;9.10;93.70;;;;;;7736184;28;20209;-80
2020/12/04 11:19:12;;;;;;;2.50;0.90;;;9.20;93.60;;;;;;7742943;28;20168;-83
2020/12/04 11:22:54;;;;;;;5.70;1.37;;;9.20;93.30;;;;;;7745659;28;20126;-82
2020/12/04 11:26:35;;;;;;;2.87;1.10;;;9.20;92.90;;;;;;7736937;28;20055;-77
2020/12/04 11:30:19;;;;;;;5.33;1.80;;;9.20;92.70;;;;;;7721366;28;20155;-75
2020/12/04 11:34:01;;;;;;;4.53;1.40;;;9.20;92.40;;;;;;7731470;28;20071;-75
2020/12/04 11:37:46;;;;;;;2.53;1.10;;;9.20;92.60;;;;;;7735820;28;20135;-78
2020/12/04 11:41:30;;;;;;;3.60;0.93;;;9.30;92.20;;;;;;7735201;28;20142;-82
2020/12/04 11:45:15;;;;;;;6.73;1.10;;;9.20;92.30;;;;;;7735093;28;20063;-77
2020/12/04 11:48:56;;;;;;;2.93;1.00;;;9.20;92.50;;;;;;7737954;28;20078;-76
2020/12/04 11:52:38;;;;;;;3.13;1.00;;;9.20;92.70;;;;;;7736026;28;20147;-83
2020/12/04 11:56:19;;;;;;;7.67;1.70;;;9.20;92.40;;;;;;7739559;28;20117;-83
2020/12/04 12:00:01;;;;;;;4.43;1.13;;;9.20;92.50;;;;;;7735591;28;20444;-83
2020/12/04 12:03:43;;;;;;;3.47;1.13;;;9.20;92.10;;;;;;7744225;28;20605;-75
2020/12/04 12:07:25;;;;;;;3.80;1.23;;;9.20;92.10;;;;;;7736508;28;20143;-75
2020/12/04 12:11:06;;;;;;;2.57;1.00;;;9.30;92.30;;;;;;7742613;28;20103;-75
2020/12/04 12:14:48;;;;;;;4.17;1.10;;;9.30;92.20;;;;;;7732572;28;20064;-75
2020/12/04 12:18:29;;;;;;;1.57;0.87;;;9.40;91.90;;;;;;7735216;28;20079;-84
2020/12/04 12:22:13;;;;;;;4.67;1.10;;;9.40;91.90;;;;;;7736288;28;20066;-84
2020/12/04 12:25:55;;;;;;;4.67;1.37;;;9.40;91.60;;;;;;7731970;28;20060;-80
2020/12/04 12:29:37;;;;;;;6.70;2.20;;;9.40;91.00;;;;;;7734173;28;20452;-76
2020/12/04 12:33:19;;;;;;;4.37;1.70;;;9.40;91.30;;;;;;7734914;28;20070;-84
2020/12/04 12:37:00;;;;;;;3.70;1.50;;;9.40;91.00;;;;;;7730283;28;20099;-84
2020/12/04 12:40:42;;;;;;;6.37;2.77;;;9.30;90.00;;;;;;7735039;28;20060;-84
2020/12/04 12:44:23;;;;;;;4.80;2.30;;;9.20;89.10;;;;;;7734964;28;20131;-84
2020/12/04 12:48:08;;;;;;;4.80;1.90;;;9.10;88.00;;;;;;7734780;28;20056;-83
2020/12/04 12:51:49;;;;;;;7.40;1.87;;;9.10;88.60;;;;;;7735096;28;20087;-84
2020/12/04 12:55:31;;;;;;;3.53;1.10;;;9.00;89.00;;;;;;7734532;28;20068;-83
2020/12/04 12:59:13;;;;;;;4.53;1.30;;;9.00;89.40;;;;;;7735452;28;20056;-83
2020/12/04 13:02:56;;;;;;;2.63;1.27;;;8.90;89.30;;;;;;7736792;28;20139;-81
2020/12/04 13:06:41;;;;;;;3.43;1.53;;;8.80;89.40;;;;;;7734153;28;20463;-84
2020/12/04 13:10:23;;;;;;;10.07;1.30;;;8.80;90.00;;;;;;7735299;28;20087;-83
2020/12/04 13:14:06;;;;;;;6.20;1.63;;;8.70;90.20;;;;;;7731888;28;20528;-75
2020/12/04 13:17:49;;;;;;;8.33;1.50;;;8.70;90.50;;;;;;7733339;28;20067;-76
2020/12/04 13:25:32;;;;;;;3.13;1.00;;;8.60;90.90;;;;;;7731263;28;20460;-82
2020/12/04 13:29:13;;;;;;;3.63;1.30;;;8.60;91.20;;;;;;7732353;28;20118;-76
2020/12/04 13:32:56;;;;;;;3.73;1.20;;;8.50;91.40;;;;;;7731870;28;20716;-75
2020/12/04 13:36:39;;;;;;;2.97;1.40;;;8.50;91.60;;;;;;7732504;28;20108;-75
2020/12/04 13:40:21;;;;;;;4.83;1.50;;;8.50;91.80;;;;;;7733079;28;20088;-75
2020/12/04 13:44:02;;;;;;;3.80;1.40;;;8.50;92.00;;;;;;7731481;28;20131;-75
2020/12/04 13:47:44;;;;;;;1.80;1.27;;;8.50;92.20;;;;;;7745680;28;20098;-77
2020/12/04 13:51:39;;;;;;;3.83;1.40;;;8.60;92.30;;;;;;7734237;28;20063;-77
2020/12/04 13:55:21;;;;;;;3.60;1.33;;;8.50;92.40;;;;;;7729585;28;20134;-75
2020/12/04 13:59:05;;;;;;;3.40;1.47;;;8.50;92.50;;;;;;7730454;28;20131;-75
2020/12/04 14:02:46;;;;;;;8.73;2.50;;;8.50;92.50;;;;;;7730750;28;21007;-83
2020/12/04 14:06:29;;;;;;;4.50;1.30;;;8.60;92.60;;;;;;7732308;28;20131;-76
2020/12/04 14:10:11;;;;;;;5.77;1.40;;;8.60;92.50;;;;;;7728618;28;20060;-76
2020/12/04 14:13:52;;;;;;;6.30;1.20;;;8.60;92.40;;;;;;7731159;28;20091;-77
2020/12/04 14:17:34;;;;;;;1.80;1.10;;;8.60;92.10;;;;;;7731679;28;20072;-81
2020/12/04 14:21:15;;;;;;;5.97;1.37;;;8.70;91.90;;;;;;7725900;28;20066;-74
2020/12/04 14:24:57;;;;;;;4.90;1.73;;;8.70;91.80;;;;;;7729552;28;20123;-75
2020/12/04 14:28:38;;;;;;;3.27;1.20;;;8.80;91.40;;;;;;7729339;28;20047;-75
2020/12/04 14:32:20;;;;;;;3.67;1.33;;;8.80;91.60;;;;;;7728970;28;20064;-76
2020/12/04 14:36:05;;;;;;;1.80;1.00;;;8.80;90.20;;;;;;7729972;28;20059;-75
2020/12/04 14:39:47;;;;;;;3.70;1.30;;;8.80;90.50;;;;;;7730608;28;20059;-75
2020/12/04 14:43:29;;;;;;;4.87;1.23;;;8.90;89.70;;;;;;7729593;28;20333;-76
2020/12/04 14:47:10;;;;;;;3.57;1.20;;;8.80;88.00;;;;;;7730534;28;20091;-76
2020/12/04 14:50:52;;;;;;;4.87;1.20;;;8.80;88.00;;;;;;7730360;28;20094;-87
2020/12/04 14:54:34;;;;;;;3.43;1.30;;;8.80;88.10;;;;;;7729654;28;20056;-77
2020/12/04 14:58:15;;;;;;;7.50;1.37;;;8.80;88.10;;;;;;7725871;28;20409;-76
2020/12/04 15:01:58;;;;;;;4.17;1.40;;;8.80;87.50;;;;;;7731637;28;20425;-76
2020/12/04 15:05:40;;;;;;;4.17;1.17;;;8.80;88.20;;;;;;7728543;28;20056;-80
2020/12/04 15:09:21;;;;;;;5.13;1.40;;;8.80;88.00;;;;;;7714609;28;20048;-78
2020/12/04 15:13:03;;;;;;;3.80;2.10;;;8.80;87.00;;;;;;7727399;28;20512;-76
2020/12/04 15:16:44;;;;;;;3.37;1.23;;;8.80;87.10;;;;;;7726276;28;20219;-76
2020/12/04 15:20:26;;;;;;;4.13;1.47;;;8.70;86.70;;;;;;7734296;28;20056;-77
2020/12/04 15:24:07;;;;;;;4.07;1.30;;;8.60;86.30;;;;;;7735269;28;20352;-86
2020/12/04 15:27:49;;;;;;;4.40;1.50;;;8.60;86.90;;;;;;7724476;28;20686;-78
2020/12/04 15:31:31;;;;;;;4.30;1.17;;;8.60;87.40;;;;;;7736695;28;20059;-80
2020/12/04 15:35:12;;;;;;;4.97;1.20;;;8.60;87.00;;;;;;7736001;28;20457;-79
2020/12/04 15:38:56;;;;;;;3.70;0.97;;;8.60;87.40;;;;;;7738368;28;20131;-82
2020/12/04 15:42:39;;;;;;;2.07;0.83;;;8.60;87.70;;;;;;7756882;28;20091;-80
2020/12/04 15:46:21;;;;;;;2.13;0.97;;;8.50;87.90;;;;;;7754786;28;20044;-79
2020/12/04 15:50:04;;;;;;;4.27;1.10;;;8.50;88.20;;;;;;7735291;28;20139;-83
2020/12/04 15:53:46;;;;;;;3.17;1.20;;;8.50;88.40;;;;;;7758091;28;20142;-78
2020/12/04 15:57:27;;;;;;;2.17;1.10;;;8.40;88.80;;;;;;7761605;28;20091;-77
2020/12/04 16:01:09;;;;;;;3.83;1.20;;;8.40;89.30;;;;;;7731871;28;20135;-77
2020/12/04 16:04:50;;;;;;;3.63;1.20;;;8.30;89.80;;;;;;7731070;28;20532;-82
2020/12/04 16:08:32;;;;;;;3.80;1.20;;;8.20;90.10;;;;;;7732550;28;20135;-78
2020/12/04 16:12:14;;;;;;;3.40;1.40;;;8.20;90.30;;;;;;7732389;28;20095;-77
2020/12/04 16:15:55;;;;;;;5.50;1.40;;;8.10;90.50;;;;;;7732908;28;20063;-82
2020/12/04 16:19:36;;;;;;;2.87;1.40;;;8.30;90.70;;;;;;7739701;28;20066;-79
2020/12/04 16:23:18;;;;;;;5.13;1.43;;;8.10;90.80;;;;;;7749309;28;20108;-85
2020/12/04 16:26:59;;;;;;;3.47;1.10;;;8.00;90.90;;;;;;7734596;28;20056;-78
2020/12/04 16:30:41;;;;;;;5.13;1.63;;;8.00;91.00;;;;;;7729917;28;20087;-79
2020/12/04 16:34:23;;;;;;;4.00;1.53;;;8.00;91.10;;;;;;7731806;28;20106;-79
2020/12/04 16:38:07;;;;;;;2.07;1.20;;;8.00;91.20;;;;;;7738118;28;20139;-82
2020/12/04 16:41:48;;;;;;;4.43;1.50;;;8.00;91.20;;;;;;7732949;28;20135;-81
2020/12/04 16:45:30;;;;;;;2.57;1.30;;;7.90;91.20;;;;;;7742697;28;20091;-81
2020/12/04 16:49:13;;;;;;;2.20;1.23;;;7.90;91.10;;;;;;7713859;28;20083;-82
2020/12/04 16:52:54;;;;;;;3.60;1.13;;;7.90;91.10;;;;;;7731597;28;20063;-79
2020/12/04 16:56:36;;;;;;;4.37;1.27;;;7.90;91.10;;;;;;7730876;28;20093;-79
2020/12/04 17:00:18;;;;;;;2.60;1.10;;;7.90;91.10;;;;;;7725995;28;20064;-81
2020/12/04 17:04:03;;;;;;;2.33;1.20;;;7.90;91.20;;;;;;7729122;28;20092;-80
2020/12/04 17:07:45;;;;;;;3.20;1.30;;;7.90;91.20;;;;;;7718634;28;20396;-85
2020/12/04 17:11:27;;;;;;;4.37;1.80;;;7.90;91.10;;;;;;7721812;28;20086;-83
2020/12/04 17:15:08;;;;;;;4.63;1.60;;;7.80;91.10;;;;;;7728383;28;20549;-76
2020/12/04 17:18:54;;;;;;;3.97;1.27;;;7.80;91.00;;;;;;7733063;28;20095;-80
2020/12/04 17:22:38;;;;;;;6.57;2.43;;;7.80;91.10;;;;;;7728509;28;20488;-86
2020/12/04 17:26:20;;;;;;;3.27;1.50;;;7.70;90.60;;;;;;7733466;28;20095;-80
2020/12/04 17:30:04;;;;;;;3.97;1.20;;;7.70;90.50;;;;;;7728219;28;20699;-87
2020/12/04 17:33:45;;;;;;;2.73;1.10;;;7.70;90.60;;;;;;7725623;28;20152;-83
2020/12/04 17:37:29;;;;;;;2.60;0.90;;;7.70;90.70;;;;;;7724417;28;20056;-84
2020/12/04 17:41:11;;;;;;;2.13;1.10;;;7.70;90.70;;;;;;7728998;28;20084;-84
2020/12/04 17:44:52;;;;;;;2.70;1.30;;;7.70;90.70;;;;;;7727263;28;20154;-86
2020/12/04 17:48:34;;;;;;;3.00;0.90;;;7.60;90.70;;;;;;7727967;28;20056;-78
2020/12/04 17:52:17;;;;;;;2.63;1.10;;;7.60;90.70;;;;;;7730205;28;20064;-84
2020/12/04 17:55:58;;;;;;;1.73;1.00;;;7.60;90.70;;;;;;7730321;28;20429;-84
2020/12/04 17:59:42;;;;;;;1.30;1.00;;;7.60;90.80;;;;;;7730958;28;20356;-77
2020/12/04 18:03:24;;;;;;;4.37;1.20;;;7.50;90.80;;;;;;7721653;28;20139;-78
2020/12/04 18:07:05;;;;;;;2.70;1.10;;;7.50;90.80;;;;;;7742918;28;20060;-78
2020/12/04 18:10:47;;;;;;;2.43;1.10;;;7.50;90.80;;;;;;7730645;28;20068;-88
2020/12/04 18:14:28;;;;;;;1.67;0.90;;;7.50;90.80;;;;;;7732111;28;20091;-88
2020/12/04 18:18:10;;;;;;;2.43;1.30;;;7.50;90.80;;;;;;7731118;28;20142;-90
2020/12/04 18:21:56;;;;;;;1.73;0.90;;;7.50;90.80;;;;;;7730882;28;20117;-78
2020/12/04 18:25:37;;;;;;;3.60;1.67;;;7.50;90.80;;;;;;7712938;28;20060;-76
2020/12/04 18:29:19;;;;;;;2.37;1.20;;;7.40;90.80;;;;;;7720971;28;20402;-77
2020/12/04 18:33:01;;;;;;;3.00;1.30;;;7.40;90.90;;;;;;7732788;28;20068;-78
2020/12/04 18:36:48;;;;;;;1.63;0.97;;;7.30;91.00;;;;;;7718826;28;20048;-77
2020/12/04 18:40:29;;;;;;;1.55;1.25;;;7.30;91.10;;;;;;7728719;28;20099;-75
2020/12/04 18:44:11;;;;;;;2.00;1.20;;;7.30;91.30;;;;;;7725548;28;20372;-78
2020/12/04 18:47:53;;;;;;;3.60;1.17;;;7.30;91.50;;;;;;7718017;28;20052;-79
2020/12/04 18:51:39;;;;;;;2.10;1.10;;;7.30;91.60;;;;;;7729705;28;20118;-76
2020/12/04 18:55:21;;;;;;;2.10;1.00;;;7.40;91.70;;;;;;7719133;28;20135;-88
2020/12/04 18:59:02;;;;;;;2.87;1.40;;;7.40;91.60;;;;;;7742105;28;20052;-81
2020/12/04 19:02:44;;;;;;;2.67;1.40;;;7.40;91.50;;;;;;7733756;28;20055;-86
2020/12/04 19:06:26;;;;;;;2.03;1.20;;;7.40;91.50;;;;;;7719650;28;20052;-82
2020/12/04 19:10:07;;;;;;;2.67;1.40;;;7.40;91.60;;;;;;7730554;28;20059;-81
2020/12/04 19:13:49;;;;;;;3.73;1.67;;;7.40;91.70;;;;;;7722485;28;20056;-85
2020/12/04 19:17:31;;;;;;;3.93;1.93;;;7.30;91.60;;;;;;7725772;28;20154;-77
2020/12/04 19:21:12;;;;;;;4.03;1.80;;;7.30;91.60;;;;;;7716494;28;20145;-82
2020/12/04 19:24:54;;;;;;;2.57;1.67;;;7.30;91.70;;;;;;7724222;28;20434;-85
2020/12/04 19:28:35;;;;;;;3.67;1.43;;;7.20;91.80;;;;;;7730669;28;20083;-84
2020/12/04 19:32:17;;;;;;;7.63;2.47;;;7.10;91.90;;;;;;7729918;28;20129;-77
2020/12/04 19:35:59;;;;;;;8.43;3.83;;;7.10;92.10;;;;;;7724255;28;20095;-76
2020/12/04 19:39:41;;;;;;;4.40;2.53;;;7.10;92.30;;;;;;7716038;28;20060;-86
2020/12/04 19:43:22;;;;;;;3.63;1.83;;;7.10;92.30;;;;;;7726615;28;20088;-77